Caloundra, Australia
Current Conditions -  °F | °C
As of 12:52 AM on Sunday 26 Oct 2014 (Local Time) from YBBN Reporting Station
Clear Clear  
Wind Chill: 21°   Ceiling: Unl
Heat Index: 21°   Visibility: 6mi
Dew Point: 15°   Wind: 12mph
Humidity: 68%   Direction: 340°NNW
Pressure: 30"   Gusts: NA
Location:  26.8°S, 153.13°E
Report Text: YBBN 251452Z 34010KT CAVOK 21/15 Q1016 NOSIG
Loading
Personal Weather Stations






























Interactive Weather Map
Tropical Storm Tracking
New forecast layout! Learn more

10-Day Weather Forecast

Advertisements
Track Severe Weather on mobile